sensor_id;sensor_type;location;lat;lon;timestamp;P1;durP1;ratioP1;P2;durP2;ratioP2
50393;SDS011;36308;46.312;25.288;2024-01-27T00:01:08;51.67;;;26.52;;
50393;SDS011;36308;46.312;25.288;2024-01-27T00:03:34;48.75;;;26.20;;
50393;SDS011;36308;46.312;25.288;2024-01-27T00:06:00;50.42;;;25.80;;
50393;SDS011;36308;46.312;25.288;2024-01-27T00:08:25;49.65;;;25.55;;
50393;SDS011;36308;46.312;25.288;2024-01-27T00:10:51;48.10;;;25.20;;
50393;SDS011;36308;46.312;25.288;2024-01-27T00:13:17;47.88;;;23.98;;
50393;SDS011;36308;46.312;25.288;2024-01-27T00:15:42;46.42;;;25.48;;
50393;SDS011;36308;46.312;25.288;2024-01-27T00:18:08;65.72;;;31.58;;
50393;SDS011;36308;46.312;25.288;2024-01-27T00:20:33;67.10;;;33.22;;
50393;SDS011;36308;46.312;25.288;2024-01-27T00:22:59;55.95;;;28.60;;
50393;SDS011;36308;46.312;25.288;2024-01-27T00:25:24;56.55;;;28.48;;
50393;SDS011;36308;46.312;25.288;2024-01-27T00:27:50;55.78;;;27.42;;
50393;SDS011;36308;46.312;25.288;2024-01-27T00:30:15;51.05;;;27.42;;
50393;SDS011;36308;46.312;25.288;2024-01-27T00:32:40;50.10;;;27.77;;
50393;SDS011;36308;46.312;25.288;2024-01-27T00:35:07;64.65;;;32.45;;
50393;SDS011;36308;46.312;25.288;2024-01-27T00:37:33;61.70;;;31.75;;
50393;SDS011;36308;46.312;25.288;2024-01-27T00:39:59;50.80;;;28.08;;
50393;SDS011;36308;46.312;25.288;2024-01-27T00:42:24;41.47;;;21.38;;
50393;SDS011;36308;46.312;25.288;2024-01-27T00:44:50;44.15;;;19.85;;
50393;SDS011;36308;46.312;25.288;2024-01-27T00:47:16;38.80;;;19.83;;
50393;SDS011;36308;46.312;25.288;2024-01-27T00:49:41;34.88;;;18.85;;
50393;SDS011;36308;46.312;25.288;2024-01-27T00:52:07;39.38;;;19.38;;
50393;SDS011;36308;46.312;25.288;2024-01-27T00:54:32;28.52;;;16.58;;
50393;SDS011;36308;46.312;25.288;2024-01-27T00:56:58;39.47;;;19.73;;
50393;SDS011;36308;46.312;25.288;2024-01-27T00:59:23;39.15;;;22.42;;
50393;SDS011;36308;46.312;25.288;2024-01-27T01:01:49;41.50;;;21.77;;
50393;SDS011;36308;46.312;25.288;2024-01-27T01:04:14;47.70;;;24.25;;
50393;SDS011;36308;46.312;25.288;2024-01-27T01:06:40;49.88;;;26.65;;
50393;SDS011;36308;46.312;25.288;2024-01-27T01:09:06;54.22;;;28.05;;
50393;SDS011;36308;46.312;25.288;2024-01-27T01:11:31;56.10;;;27.17;;
50393;SDS011;36308;46.312;25.288;2024-01-27T01:13:57;52.38;;;26.42;;
50393;SDS011;36308;46.312;25.288;2024-01-27T01:16:22;53.10;;;27.45;;
50393;SDS011;36308;46.312;25.288;2024-01-27T01:18:48;50.78;;;25.38;;
50393;SDS011;36308;46.312;25.288;2024-01-27T01:21:13;46.03;;;24.27;;
50393;SDS011;36308;46.312;25.288;2024-01-27T01:23:39;43.70;;;22.50;;
50393;SDS011;36308;46.312;25.288;2024-01-27T01:26:05;43.75;;;22.98;;
50393;SDS011;36308;46.312;25.288;2024-01-27T01:28:31;45.03;;;23.45;;
50393;SDS011;36308;46.312;25.288;2024-01-27T01:30:57;51.40;;;27.40;;
50393;SDS011;36308;46.312;25.288;2024-01-27T01:33:22;55.88;;;28.42;;
50393;SDS011;36308;46.312;25.288;2024-01-27T01:35:48;61.97;;;29.55;;
50393;SDS011;36308;46.312;25.288;2024-01-27T01:38:13;54.45;;;29.30;;
50393;SDS011;36308;46.312;25.288;2024-01-27T01:40:39;50.88;;;27.00;;
50393;SDS011;36308;46.312;25.288;2024-01-27T01:43:09;43.60;;;21.75;;
50393;SDS011;36308;46.312;25.288;2024-01-27T01:45:37;39.92;;;21.02;;
50393;SDS011;36308;46.312;25.288;2024-01-27T01:48:03;37.58;;;20.30;;
50393;SDS011;36308;46.312;25.288;2024-01-27T01:50:29;39.88;;;20.98;;
50393;SDS011;36308;46.312;25.288;2024-01-27T01:52:55;43.35;;;22.70;;
50393;SDS011;36308;46.312;25.288;2024-01-27T01:55:21;38.78;;;21.35;;
50393;SDS011;36308;46.312;25.288;2024-01-27T01:57:46;43.20;;;22.83;;
50393;SDS011;36308;46.312;25.288;2024-01-27T02:00:13;38.95;;;20.90;;
50393;SDS011;36308;46.312;25.288;2024-01-27T02:02:39;39.20;;;20.70;;
50393;SDS011;36308;46.312;25.288;2024-01-27T02:05:05;36.67;;;20.30;;
50393;SDS011;36308;46.312;25.288;2024-01-27T02:07:31;39.00;;;20.45;;
50393;SDS011;36308;46.312;25.288;2024-01-27T02:09:56;38.75;;;20.70;;
50393;SDS011;36308;46.312;25.288;2024-01-27T02:12:22;38.08;;;21.15;;
50393;SDS011;36308;46.312;25.288;2024-01-27T02:14:47;36.40;;;20.08;;
50393;SDS011;36308;46.312;25.288;2024-01-27T02:17:13;41.42;;;22.40;;
50393;SDS011;36308;46.312;25.288;2024-01-27T02:19:38;38.90;;;21.05;;
50393;SDS011;36308;46.312;25.288;2024-01-27T02:22:04;43.03;;;23.55;;
50393;SDS011;36308;46.312;25.288;2024-01-27T02:24:29;31.02;;;16.90;;
50393;SDS011;36308;46.312;25.288;2024-01-27T02:26:55;35.47;;;19.67;;
50393;SDS011;36308;46.312;25.288;2024-01-27T02:29:21;36.08;;;19.15;;
50393;SDS011;36308;46.312;25.288;2024-01-27T02:31:46;35.83;;;18.77;;
50393;SDS011;36308;46.312;25.288;2024-01-27T02:34:12;33.47;;;17.63;;
50393;SDS011;36308;46.312;25.288;2024-01-27T02:36:37;36.13;;;18.20;;
50393;SDS011;36308;46.312;25.288;2024-01-27T02:39:03;34.35;;;17.45;;
50393;SDS011;36308;46.312;25.288;2024-01-27T02:41:28;38.38;;;17.00;;
50393;SDS011;36308;46.312;25.288;2024-01-27T02:43:54;28.45;;;16.02;;
50393;SDS011;36308;46.312;25.288;2024-01-27T02:46:19;27.90;;;16.10;;
50393;SDS011;36308;46.312;25.288;2024-01-27T02:48:45;25.65;;;15.40;;
50393;SDS011;36308;46.312;25.288;2024-01-27T02:51:11;21.63;;;12.88;;
50393;SDS011;36308;46.312;25.288;2024-01-27T02:53:36;30.60;;;16.23;;
50393;SDS011;36308;46.312;25.288;2024-01-27T02:56:02;29.33;;;15.98;;
50393;SDS011;36308;46.312;25.288;2024-01-27T02:58:27;28.40;;;16.00;;
50393;SDS011;36308;46.312;25.288;2024-01-27T03:00:53;26.60;;;15.48;;
50393;SDS011;36308;46.312;25.288;2024-01-27T03:03:18;31.73;;;16.13;;
50393;SDS011;36308;46.312;25.288;2024-01-27T03:05:44;27.33;;;16.52;;
50393;SDS011;36308;46.312;25.288;2024-01-27T03:08:09;31.25;;;17.48;;
50393;SDS011;36308;46.312;25.288;2024-01-27T03:10:35;34.38;;;18.63;;
50393;SDS011;36308;46.312;25.288;2024-01-27T03:13:00;37.17;;;20.23;;
50393;SDS011;36308;46.312;25.288;2024-01-27T03:15:26;33.92;;;18.95;;
50393;SDS011;36308;46.312;25.288;2024-01-27T03:17:51;34.80;;;20.23;;
50393;SDS011;36308;46.312;25.288;2024-01-27T03:20:17;35.97;;;20.25;;
50393;SDS011;36308;46.312;25.288;2024-01-27T03:22:42;34.92;;;18.77;;
50393;SDS011;36308;46.312;25.288;2024-01-27T03:25:09;34.15;;;19.13;;
50393;SDS011;36308;46.312;25.288;2024-01-27T03:27:36;36.22;;;20.35;;
50393;SDS011;36308;46.312;25.288;2024-01-27T03:30:02;34.38;;;19.35;;
50393;SDS011;36308;46.312;25.288;2024-01-27T03:32:28;36.05;;;19.13;;
50393;SDS011;36308;46.312;25.288;2024-01-27T03:34:57;38.75;;;22.80;;
50393;SDS011;36308;46.312;25.288;2024-01-27T03:37:23;39.15;;;20.70;;
50393;SDS011;36308;46.312;25.288;2024-01-27T03:39:49;36.17;;;20.48;;
50393;SDS011;36308;46.312;25.288;2024-01-27T03:42:14;33.38;;;18.13;;
50393;SDS011;36308;46.312;25.288;2024-01-27T03:44:40;27.98;;;15.80;;
50393;SDS011;36308;46.312;25.288;2024-01-27T03:47:05;27.17;;;15.88;;
50393;SDS011;36308;46.312;25.288;2024-01-27T03:49:30;28.38;;;16.42;;
50393;SDS011;36308;46.312;25.288;2024-01-27T03:51:56;33.72;;;17.92;;
50393;SDS011;36308;46.312;25.288;2024-01-27T03:54:22;38.60;;;21.20;;
50393;SDS011;36308;46.312;25.288;2024-01-27T03:56:47;50.20;;;28.67;;
50393;SDS011;36308;46.312;25.288;2024-01-27T03:59:12;50.03;;;26.40;;
50393;SDS011;36308;46.312;25.288;2024-01-27T04:01:38;47.85;;;27.25;;
50393;SDS011;36308;46.312;25.288;2024-01-27T04:04:04;46.45;;;25.80;;
50393;SDS011;36308;46.312;25.288;2024-01-27T04:06:35;46.15;;;24.73;;
50393;SDS011;36308;46.312;25.288;2024-01-27T04:09:01;49.42;;;26.30;;
50393;SDS011;36308;46.312;25.288;2024-01-27T04:11:26;67.35;;;34.00;;
50393;SDS011;36308;46.312;25.288;2024-01-27T04:13:52;58.28;;;30.60;;
50393;SDS011;36308;46.312;25.288;2024-01-27T04:16:17;47.80;;;26.10;;
50393;SDS011;36308;46.312;25.288;2024-01-27T04:18:43;61.72;;;33.40;;
50393;SDS011;36308;46.312;25.288;2024-01-27T04:21:08;52.90;;;30.35;;
50393;SDS011;36308;46.312;25.288;2024-01-27T04:23:34;53.58;;;28.35;;
50393;SDS011;36308;46.312;25.288;2024-01-27T04:26:00;90.25;;;44.78;;
50393;SDS011;36308;46.312;25.288;2024-01-27T04:28:25;87.50;;;43.58;;
50393;SDS011;36308;46.312;25.288;2024-01-27T04:30:50;72.78;;;36.40;;
50393;SDS011;36308;46.312;25.288;2024-01-27T04:33:16;56.75;;;29.60;;
50393;SDS011;36308;46.312;25.288;2024-01-27T04:35:41;34.53;;;18.98;;
50393;SDS011;36308;46.312;25.288;2024-01-27T04:38:10;38.63;;;19.70;;
50393;SDS011;36308;46.312;25.288;2024-01-27T04:40:35;41.13;;;22.10;;
50393;SDS011;36308;46.312;25.288;2024-01-27T04:43:01;34.55;;;19.13;;
50393;SDS011;36308;46.312;25.288;2024-01-27T04:45:28;40.78;;;22.98;;
50393;SDS011;36308;46.312;25.288;2024-01-27T04:47:53;38.70;;;22.75;;
50393;SDS011;36308;46.312;25.288;2024-01-27T04:50:19;35.00;;;20.13;;
50393;SDS011;36308;46.312;25.288;2024-01-27T04:52:45;40.22;;;21.92;;
50393;SDS011;36308;46.312;25.288;2024-01-27T04:55:11;38.80;;;22.92;;
50393;SDS011;36308;46.312;25.288;2024-01-27T04:57:36;32.10;;;19.35;;
50393;SDS011;36308;46.312;25.288;2024-01-27T05:00:02;28.70;;;17.05;;
50393;SDS011;36308;46.312;25.288;2024-01-27T05:02:32;29.65;;;17.65;;
50393;SDS011;36308;46.312;25.288;2024-01-27T05:04:57;30.48;;;17.65;;
50393;SDS011;36308;46.312;25.288;2024-01-27T05:07:23;26.88;;;16.80;;
50393;SDS011;36308;46.312;25.288;2024-01-27T05:09:48;36.35;;;20.70;;
50393;SDS011;36308;46.312;25.288;2024-01-27T05:12:14;35.03;;;19.13;;
50393;SDS011;36308;46.312;25.288;2024-01-27T05:14:43;31.48;;;18.60;;
50393;SDS011;36308;46.312;25.288;2024-01-27T05:17:09;38.28;;;20.50;;
50393;SDS011;36308;46.312;25.288;2024-01-27T05:19:35;34.10;;;19.15;;
50393;SDS011;36308;46.312;25.288;2024-01-27T05:22:00;28.23;;;16.75;;
50393;SDS011;36308;46.312;25.288;2024-01-27T05:24:26;32.20;;;18.30;;
50393;SDS011;36308;46.312;25.288;2024-01-27T05:26:51;32.50;;;18.05;;
50393;SDS011;36308;46.312;25.288;2024-01-27T05:29:17;21.48;;;12.63;;
50393;SDS011;36308;46.312;25.288;2024-01-27T05:31:43;26.77;;;15.18;;
50393;SDS011;36308;46.312;25.288;2024-01-27T05:34:09;33.65;;;18.13;;
50393;SDS011;36308;46.312;25.288;2024-01-27T05:36:35;37.67;;;21.45;;
50393;SDS011;36308;46.312;25.288;2024-01-27T05:39:01;32.42;;;19.80;;
50393;SDS011;36308;46.312;25.288;2024-01-27T05:41:29;30.40;;;18.75;;
50393;SDS011;36308;46.312;25.288;2024-01-27T05:43:55;31.65;;;15.73;;
50393;SDS011;36308;46.312;25.288;2024-01-27T05:46:23;30.90;;;15.52;;
50393;SDS011;36308;46.312;25.288;2024-01-27T05:48:49;30.63;;;16.77;;
50393;SDS011;36308;46.312;25.288;2024-01-27T05:51:16;41.58;;;21.08;;
50393;SDS011;36308;46.312;25.288;2024-01-27T05:53:41;44.50;;;22.42;;
50393;SDS011;36308;46.312;25.288;2024-01-27T05:56:07;32.33;;;18.42;;
50393;SDS011;36308;46.312;25.288;2024-01-27T05:58:32;29.17;;;16.48;;
50393;SDS011;36308;46.312;25.288;2024-01-27T06:00:58;28.92;;;15.63;;
50393;SDS011;36308;46.312;25.288;2024-01-27T06:03:24;29.55;;;17.45;;
50393;SDS011;36308;46.312;25.288;2024-01-27T06:05:49;33.42;;;19.92;;
50393;SDS011;36308;46.312;25.288;2024-01-27T06:08:15;33.63;;;19.67;;
50393;SDS011;36308;46.312;25.288;2024-01-27T06:10:40;32.17;;;19.48;;
50393;SDS011;36308;46.312;25.288;2024-01-27T06:13:06;30.30;;;18.42;;
50393;SDS011;36308;46.312;25.288;2024-01-27T06:15:31;18.95;;;12.02;;
50393;SDS011;36308;46.312;25.288;2024-01-27T06:17:58;25.52;;;14.18;;
50393;SDS011;36308;46.312;25.288;2024-01-27T06:20:24;29.85;;;17.52;;
50393;SDS011;36308;46.312;25.288;2024-01-27T06:22:50;32.65;;;18.63;;
50393;SDS011;36308;46.312;25.288;2024-01-27T06:25:17;36.30;;;21.52;;
50393;SDS011;36308;46.312;25.288;2024-01-27T06:27:43;32.47;;;19.55;;
50393;SDS011;36308;46.312;25.288;2024-01-27T06:30:08;34.38;;;20.40;;
50393;SDS011;36308;46.312;25.288;2024-01-27T06:32:35;29.42;;;18.17;;
50393;SDS011;36308;46.312;25.288;2024-01-27T06:35:01;28.05;;;18.10;;
50393;SDS011;36308;46.312;25.288;2024-01-27T06:37:26;33.80;;;20.85;;
50393;SDS011;36308;46.312;25.288;2024-01-27T06:39:52;97.40;;;51.13;;
50393;SDS011;36308;46.312;25.288;2024-01-27T06:42:17;87.28;;;47.85;;
50393;SDS011;36308;46.312;25.288;2024-01-27T06:44:43;72.68;;;41.10;;
50393;SDS011;36308;46.312;25.288;2024-01-27T06:47:08;78.00;;;42.83;;
50393;SDS011;36308;46.312;25.288;2024-01-27T06:49:34;96.40;;;46.28;;
50393;SDS011;36308;46.312;25.288;2024-01-27T06:51:59;88.30;;;43.88;;
50393;SDS011;36308;46.312;25.288;2024-01-27T06:54:25;83.03;;;45.15;;
50393;SDS011;36308;46.312;25.288;2024-01-27T06:56:51;78.68;;;46.00;;
50393;SDS011;36308;46.312;25.288;2024-01-27T06:59:16;90.28;;;51.80;;
50393;SDS011;36308;46.312;25.288;2024-01-27T07:01:46;92.72;;;50.47;;
50393;SDS011;36308;46.312;25.288;2024-01-27T07:04:13;133.63;;;71.55;;
50393;SDS011;36308;46.312;25.288;2024-01-27T07:06:39;128.93;;;70.90;;
50393;SDS011;36308;46.312;25.288;2024-01-27T07:09:04;137.02;;;73.75;;
50393;SDS011;36308;46.312;25.288;2024-01-27T07:11:31;126.55;;;68.13;;
50393;SDS011;36308;46.312;25.288;2024-01-27T07:13:57;103.80;;;56.55;;
50393;SDS011;36308;46.312;25.288;2024-01-27T07:16:23;112.22;;;60.50;;
50393;SDS011;36308;46.312;25.288;2024-01-27T07:18:50;87.15;;;49.58;;
50393;SDS011;36308;46.312;25.288;2024-01-27T07:21:16;71.03;;;40.70;;
50393;SDS011;36308;46.312;25.288;2024-01-27T07:23:42;62.10;;;35.72;;
50393;SDS011;36308;46.312;25.288;2024-01-27T07:26:11;45.60;;;26.77;;
50393;SDS011;36308;46.312;25.288;2024-01-27T07:28:37;52.78;;;32.90;;
50393;SDS011;36308;46.312;25.288;2024-01-27T07:31:03;59.65;;;34.72;;
50393;SDS011;36308;46.312;25.288;2024-01-27T07:33:30;59.50;;;36.50;;
50393;SDS011;36308;46.312;25.288;2024-01-27T07:35:56;93.30;;;51.45;;
50393;SDS011;36308;46.312;25.288;2024-01-27T07:38:22;203.25;;;97.78;;
50393;SDS011;36308;46.312;25.288;2024-01-27T07:40:47;150.90;;;81.28;;
50393;SDS011;36308;46.312;25.288;2024-01-27T07:43:13;194.30;;;96.65;;
50393;SDS011;36308;46.312;25.288;2024-01-27T07:45:38;149.55;;;81.35;;
50393;SDS011;36308;46.312;25.288;2024-01-27T07:48:04;145.77;;;85.15;;
50393;SDS011;36308;46.312;25.288;2024-01-27T07:50:30;94.90;;;57.35;;
50393;SDS011;36308;46.312;25.288;2024-01-27T07:52:56;95.97;;;57.55;;
50393;SDS011;36308;46.312;25.288;2024-01-27T07:55:21;94.50;;;54.35;;
50393;SDS011;36308;46.312;25.288;2024-01-27T07:57:47;90.82;;;53.92;;
50393;SDS011;36308;46.312;25.288;2024-01-27T08:00:13;92.95;;;52.33;;
50393;SDS011;36308;46.312;25.288;2024-01-27T08:02:38;68.80;;;43.15;;
50393;SDS011;36308;46.312;25.288;2024-01-27T08:05:04;74.60;;;44.22;;
50393;SDS011;36308;46.312;25.288;2024-01-27T08:07:29;92.28;;;55.10;;
50393;SDS011;36308;46.312;25.288;2024-01-27T08:09:55;75.60;;;44.15;;
50393;SDS011;36308;46.312;25.288;2024-01-27T08:12:22;80.95;;;47.05;;
50393;SDS011;36308;46.312;25.288;2024-01-27T08:14:48;91.88;;;51.78;;
50393;SDS011;36308;46.312;25.288;2024-01-27T08:17:13;102.28;;;58.50;;
50393;SDS011;36308;46.312;25.288;2024-01-27T08:19:39;96.07;;;54.55;;
50393;SDS011;36308;46.312;25.288;2024-01-27T08:22:05;89.95;;;51.92;;
50393;SDS011;36308;46.312;25.288;2024-01-27T08:24:30;79.63;;;44.70;;
50393;SDS011;36308;46.312;25.288;2024-01-27T08:26:56;61.55;;;34.58;;
50393;SDS011;36308;46.312;25.288;2024-01-27T08:29:22;61.03;;;36.42;;
50393;SDS011;36308;46.312;25.288;2024-01-27T08:31:48;58.38;;;34.00;;
50393;SDS011;36308;46.312;25.288;2024-01-27T08:34:14;62.28;;;36.75;;
50393;SDS011;36308;46.312;25.288;2024-01-27T08:36:39;79.10;;;44.88;;
50393;SDS011;36308;46.312;25.288;2024-01-27T08:39:05;63.58;;;35.53;;
50393;SDS011;36308;46.312;25.288;2024-01-27T08:41:32;61.90;;;34.95;;
50393;SDS011;36308;46.312;25.288;2024-01-27T08:43:58;70.82;;;33.72;;
50393;SDS011;36308;46.312;25.288;2024-01-27T08:46:23;75.05;;;36.90;;
50393;SDS011;36308;46.312;25.288;2024-01-27T08:48:49;65.07;;;33.78;;
50393;SDS011;36308;46.312;25.288;2024-01-27T08:51:14;58.40;;;29.75;;
50393;SDS011;36308;46.312;25.288;2024-01-27T08:53:41;55.78;;;30.40;;
50393;SDS011;36308;46.312;25.288;2024-01-27T08:56:13;50.70;;;26.75;;
50393;SDS011;36308;46.312;25.288;2024-01-27T08:58:45;61.63;;;31.13;;
50393;SDS011;36308;46.312;25.288;2024-01-27T09:01:12;64.60;;;35.65;;
50393;SDS011;36308;46.312;25.288;2024-01-27T09:03:40;54.50;;;31.67;;
50393;SDS011;36308;46.312;25.288;2024-01-27T09:06:05;97.05;;;48.92;;
50393;SDS011;36308;46.312;25.288;2024-01-27T09:08:32;54.10;;;30.45;;
50393;SDS011;36308;46.312;25.288;2024-01-27T09:10:58;49.72;;;29.40;;
50393;SDS011;36308;46.312;25.288;2024-01-27T09:13:24;56.80;;;32.95;;
50393;SDS011;36308;46.312;25.288;2024-01-27T09:15:49;81.00;;;41.97;;
50393;SDS011;36308;46.312;25.288;2024-01-27T09:18:15;56.10;;;30.05;;
50393;SDS011;36308;46.312;25.288;2024-01-27T09:20:41;50.72;;;28.27;;
50393;SDS011;36308;46.312;25.288;2024-01-27T09:23:07;77.88;;;42.85;;
50393;SDS011;36308;46.312;25.288;2024-01-27T09:25:32;53.25;;;30.38;;
50393;SDS011;36308;46.312;25.288;2024-01-27T09:27:58;59.40;;;32.30;;
50393;SDS011;36308;46.312;25.288;2024-01-27T09:30:26;48.22;;;26.25;;
50393;SDS011;36308;46.312;25.288;2024-01-27T09:32:51;63.55;;;31.67;;
50393;SDS011;36308;46.312;25.288;2024-01-27T09:35:17;55.95;;;29.88;;
50393;SDS011;36308;46.312;25.288;2024-01-27T09:37:43;50.58;;;30.13;;
50393;SDS011;36308;46.312;25.288;2024-01-27T09:40:10;45.85;;;25.95;;
50393;SDS011;36308;46.312;25.288;2024-01-27T09:42:36;45.13;;;26.45;;
50393;SDS011;36308;46.312;25.288;2024-01-27T09:45:05;33.05;;;19.95;;
50393;SDS011;36308;46.312;25.288;2024-01-27T09:47:31;51.47;;;29.98;;
50393;SDS011;36308;46.312;25.288;2024-01-27T09:49:59;44.85;;;26.83;;
50393;SDS011;36308;46.312;25.288;2024-01-27T09:52:24;41.38;;;25.38;;
50393;SDS011;36308;46.312;25.288;2024-01-27T09:54:50;52.33;;;32.30;;
50393;SDS011;36308;46.312;25.288;2024-01-27T09:57:16;36.92;;;23.60;;
50393;SDS011;36308;46.312;25.288;2024-01-27T09:59:43;39.85;;;23.65;;
50393;SDS011;36308;46.312;25.288;2024-01-27T10:02:11;25.50;;;14.57;;
50393;SDS011;36308;46.312;25.288;2024-01-27T10:04:39;29.67;;;17.45;;
50393;SDS011;36308;46.312;25.288;2024-01-27T10:07:07;34.55;;;22.27;;
50393;SDS011;36308;46.312;25.288;2024-01-27T10:09:32;33.35;;;18.25;;
50393;SDS011;36308;46.312;25.288;2024-01-27T10:11:58;18.95;;;9.98;;
50393;SDS011;36308;46.312;25.288;2024-01-27T10:14:26;13.68;;;8.05;;
50393;SDS011;36308;46.312;25.288;2024-01-27T10:17:02;14.77;;;9.05;;
50393;SDS011;36308;46.312;25.288;2024-01-27T10:19:27;17.45;;;10.20;;
50393;SDS011;36308;46.312;25.288;2024-01-27T10:21:59;15.73;;;8.98;;
50393;SDS011;36308;46.312;25.288;2024-01-27T10:24:31;11.27;;;7.00;;
50393;SDS011;36308;46.312;25.288;2024-01-27T10:27:03;11.93;;;7.78;;
50393;SDS011;36308;46.312;25.288;2024-01-27T10:29:32;10.23;;;6.28;;
50393;SDS011;36308;46.312;25.288;2024-01-27T10:32:10;12.60;;;7.18;;
50393;SDS011;36308;46.312;25.288;2024-01-27T10:34:36;102.88;;;42.15;;
50393;SDS011;36308;46.312;25.288;2024-01-27T10:37:01;15.73;;;9.45;;
50393;SDS011;36308;46.312;25.288;2024-01-27T10:39:27;15.02;;;8.25;;
50393;SDS011;36308;46.312;25.288;2024-01-27T10:41:53;13.02;;;7.70;;
50393;SDS011;36308;46.312;25.288;2024-01-27T10:44:19;13.43;;;7.22;;
50393;SDS011;36308;46.312;25.288;2024-01-27T10:46:48;10.82;;;6.72;;
50393;SDS011;36308;46.312;25.288;2024-01-27T10:49:15;48.13;;;23.30;;
50393;SDS011;36308;46.312;25.288;2024-01-27T10:51:43;101.20;;;50.67;;
50393;SDS011;36308;46.312;25.288;2024-01-27T10:54:27;43.17;;;22.20;;
50393;SDS011;36308;46.312;25.288;2024-01-27T10:56:53;21.40;;;12.23;;
50393;SDS011;36308;46.312;25.288;2024-01-27T10:59:21;15.18;;;9.45;;
50393;SDS011;36308;46.312;25.288;2024-01-27T11:01:48;28.08;;;15.25;;
50393;SDS011;36308;46.312;25.288;2024-01-27T11:04:19;14.85;;;9.75;;
50393;SDS011;36308;46.312;25.288;2024-01-27T11:06:46;15.73;;;9.48;;
50393;SDS011;36308;46.312;25.288;2024-01-27T11:09:13;24.92;;;13.32;;
50393;SDS011;36308;46.312;25.288;2024-01-27T11:11:39;20.02;;;12.60;;
50393;SDS011;36308;46.312;25.288;2024-01-27T11:14:07;23.40;;;13.15;;
50393;SDS011;36308;46.312;25.288;2024-01-27T11:16:34;38.55;;;21.27;;
50393;SDS011;36308;46.312;25.288;2024-01-27T11:19:00;15.13;;;9.35;;
50393;SDS011;36308;46.312;25.288;2024-01-27T11:21:25;20.08;;;11.95;;
50393;SDS011;36308;46.312;25.288;2024-01-27T11:23:51;21.00;;;11.90;;
50393;SDS011;36308;46.312;25.288;2024-01-27T11:26:20;15.48;;;9.63;;
50393;SDS011;36308;46.312;25.288;2024-01-27T11:28:47;13.85;;;8.88;;
50393;SDS011;36308;46.312;25.288;2024-01-27T11:31:15;18.80;;;11.02;;
50393;SDS011;36308;46.312;25.288;2024-01-27T11:33:44;14.25;;;8.90;;
50393;SDS011;36308;46.312;25.288;2024-01-27T11:36:22;17.35;;;11.38;;
50393;SDS011;36308;46.312;25.288;2024-01-27T11:38:49;23.92;;;13.48;;
50393;SDS011;36308;46.312;25.288;2024-01-27T11:41:28;21.98;;;13.90;;
50393;SDS011;36308;46.312;25.288;2024-01-27T11:43:55;25.55;;;15.60;;
50393;SDS011;36308;46.312;25.288;2024-01-27T11:46:22;23.77;;;13.82;;
50393;SDS011;36308;46.312;25.288;2024-01-27T11:48:48;17.95;;;11.02;;
50393;SDS011;36308;46.312;25.288;2024-01-27T11:51:14;20.17;;;12.20;;
50393;SDS011;36308;46.312;25.288;2024-01-27T11:53:40;33.58;;;19.23;;
50393;SDS011;36308;46.312;25.288;2024-01-27T11:56:06;20.42;;;10.93;;
50393;SDS011;36308;46.312;25.288;2024-01-27T11:58:32;20.10;;;11.52;;
50393;SDS011;36308;46.312;25.288;2024-01-27T12:00:58;20.48;;;12.48;;
50393;SDS011;36308;46.312;25.288;2024-01-27T12:03:25;20.27;;;12.40;;
50393;SDS011;36308;46.312;25.288;2024-01-27T12:05:52;16.10;;;10.18;;
50393;SDS011;36308;46.312;25.288;2024-01-27T12:08:18;27.50;;;13.93;;
50393;SDS011;36308;46.312;25.288;2024-01-27T12:10:43;19.42;;;10.88;;
50393;SDS011;36308;46.312;25.288;2024-01-27T12:13:09;22.10;;;13.52;;
50393;SDS011;36308;46.312;25.288;2024-01-27T12:15:34;19.55;;;11.10;;
50393;SDS011;36308;46.312;25.288;2024-01-27T12:18:00;21.17;;;12.90;;
50393;SDS011;36308;46.312;25.288;2024-01-27T12:20:26;17.98;;;9.98;;
50393;SDS011;36308;46.312;25.288;2024-01-27T12:23:05;18.00;;;10.00;;
50393;SDS011;36308;46.312;25.288;2024-01-27T12:25:30;17.63;;;9.40;;
50393;SDS011;36308;46.312;25.288;2024-01-27T12:27:56;32.45;;;15.35;;
50393;SDS011;36308;46.312;25.288;2024-01-27T12:30:26;17.27;;;10.80;;
50393;SDS011;36308;46.312;25.288;2024-01-27T12:32:52;21.33;;;10.73;;
50393;SDS011;36308;46.312;25.288;2024-01-27T12:35:17;27.60;;;12.80;;
50393;SDS011;36308;46.312;25.288;2024-01-27T12:37:43;33.05;;;14.48;;
50393;SDS011;36308;46.312;25.288;2024-01-27T12:40:18;18.38;;;9.88;;
50393;SDS011;36308;46.312;25.288;2024-01-27T12:42:45;16.75;;;9.85;;
50393;SDS011;36308;46.312;25.288;2024-01-27T12:45:11;24.13;;;11.57;;
50393;SDS011;36308;46.312;25.288;2024-01-27T12:47:37;28.60;;;13.70;;
50393;SDS011;36308;46.312;25.288;2024-01-27T12:50:02;20.27;;;11.25;;
50393;SDS011;36308;46.312;25.288;2024-01-27T12:52:28;18.48;;;9.45;;
50393;SDS011;36308;46.312;25.288;2024-01-27T12:54:53;15.23;;;8.18;;
50393;SDS011;36308;46.312;25.288;2024-01-27T12:57:19;32.45;;;14.07;;
50393;SDS011;36308;46.312;25.288;2024-01-27T12:59:45;23.05;;;14.77;;
50393;SDS011;36308;46.312;25.288;2024-01-27T13:02:10;17.30;;;10.20;;
50393;SDS011;36308;46.312;25.288;2024-01-27T13:04:36;31.50;;;16.92;;
50393;SDS011;36308;46.312;25.288;2024-01-27T13:07:01;22.52;;;11.48;;
50393;SDS011;36308;46.312;25.288;2024-01-27T13:09:27;20.85;;;11.82;;
50393;SDS011;36308;46.312;25.288;2024-01-27T13:11:52;33.08;;;16.35;;
50393;SDS011;36308;46.312;25.288;2024-01-27T13:14:18;25.40;;;14.32;;
50393;SDS011;36308;46.312;25.288;2024-01-27T13:16:45;37.92;;;19.05;;
50393;SDS011;36308;46.312;25.288;2024-01-27T13:19:11;17.30;;;9.23;;
50393;SDS011;36308;46.312;25.288;2024-01-27T13:21:37;132.85;;;67.05;;
50393;SDS011;36308;46.312;25.288;2024-01-27T13:24:04;21.73;;;12.88;;
50393;SDS011;36308;46.312;25.288;2024-01-27T13:26:32;55.58;;;29.35;;
50393;SDS011;36308;46.312;25.288;2024-01-27T13:28:59;80.90;;;46.70;;
50393;SDS011;36308;46.312;25.288;2024-01-27T13:31:25;27.60;;;15.73;;
50393;SDS011;36308;46.312;25.288;2024-01-27T13:33:50;12.43;;;7.65;;
50393;SDS011;36308;46.312;25.288;2024-01-27T13:36:16;18.70;;;11.23;;
50393;SDS011;36308;46.312;25.288;2024-01-27T13:38:41;14.30;;;8.38;;
50393;SDS011;36308;46.312;25.288;2024-01-27T13:41:07;17.85;;;10.05;;
50393;SDS011;36308;46.312;25.288;2024-01-27T13:43:32;28.40;;;17.40;;
50393;SDS011;36308;46.312;25.288;2024-01-27T13:45:58;14.73;;;8.15;;
50393;SDS011;36308;46.312;25.288;2024-01-27T13:48:23;21.00;;;13.13;;
50393;SDS011;36308;46.312;25.288;2024-01-27T13:50:49;20.15;;;13.15;;
50393;SDS011;36308;46.312;25.288;2024-01-27T13:53:14;15.80;;;10.05;;
50393;SDS011;36308;46.312;25.288;2024-01-27T13:55:40;16.33;;;10.23;;
50393;SDS011;36308;46.312;25.288;2024-01-27T13:58:07;14.15;;;8.18;;
50393;SDS011;36308;46.312;25.288;2024-01-27T14:00:33;16.10;;;9.52;;
50393;SDS011;36308;46.312;25.288;2024-01-27T14:02:59;15.20;;;9.15;;